Forks, Washington
Current Conditions -  °F | °C
As of 5:33 PM on Wednesday 26 Nov 2014 (Local Time) from KUIL Reporting Station
Light Rain Light Rain  
Wind Chill: 53°   Ceiling: 700
Heat Index: 53°   Visibility: 3mi
Dew Point: 53°   Wind: 8mph
Humidity: 100%   Direction: 150°SSE
Pressure: 29.87"   Gusts: 16mph
Location:  47.95°N, 124.39°W
Report Text: KUIL 270133Z AUTO 15007G14KT 3SM -RA BR OVC007 12/12 A2987 RMK AO2 RAB14 CIG 005V011 P0001 T01170117
Loading
Personal Weather Stations






























Interactive Weather Map New forecast layout! Learn more

10-Day Weather Forecast

Advertisements
Track Severe Weather on mobile